Time;durP1;ratioP1;P1;durP2;ratioP2;P2;SDS_P1;SDS_P2;PMS_P1;PMS_P2;Temp;Humidity;BMP_temperature;BMP_pressure;BME280_temperature;BME280_humidity;BME280_pressure;Samples;Min_cycle;Max_cycle;Signal;HPM_P1;HPM_P2
2021/09/28 00:00:57;;;;;;;18.10;9.02;;;;;;;11.52;87.65;100976.06;8505403;33;20486;-73
2021/09/28 00:06:00;;;;;;;16.40;10.45;;;;;;;11.56;87.87;100989.19;8510123;33;20407;-73
2021/09/28 00:11:05;;;;;;;20.23;10.40;;;;;;;11.54;87.62;100987.56;8507241;33;20665;-73
2021/09/28 00:16:08;;;;;;;28.05;11.43;;;;;;;11.49;87.48;100978.03;8505745;33;20188;-73
2021/09/28 00:21:11;;;;;;;23.77;11.65;;;;;;;11.45;87.89;100991.81;8506296;33;21009;-73
2021/09/28 00:26:15;;;;;;;16.67;10.40;;;;;;;11.37;87.84;100984.31;8507359;33;20457;-73
2021/09/28 00:31:19;;;;;;;22.13;11.02;;;;;;;11.31;87.56;100992.84;8498879;33;20615;-73
2021/09/28 00:36:23;;;;;;;22.80;12.38;;;;;;;11.25;87.75;100996.00;8491710;33;20652;-74
2021/09/28 00:41:27;;;;;;;23.98;12.00;;;;;;;10.90;88.75;100998.56;8491931;33;20144;-73
2021/09/28 00:46:30;;;;;;;23.60;11.93;;;;;;;11.10;88.25;100995.25;8492591;33;20415;-73
2021/09/28 00:51:35;;;;;;;21.85;12.48;;;;;;;10.94;88.78;100997.34;8488305;33;20554;-73
2021/09/28 00:56:40;;;;;;;22.85;14.07;;;;;;;10.98;88.48;100993.50;8488505;33;20544;-74
2021/09/28 01:01:43;;;;;;;22.13;12.30;;;;;;;10.98;88.29;101004.25;8490861;33;20153;-73
2021/09/28 01:06:47;;;;;;;24.38;12.32;;;;;;;11.00;88.28;100999.63;8489288;33;20424;-73
2021/09/28 01:11:51;;;;;;;23.02;12.23;;;;;;;11.09;87.62;101003.47;8496893;33;21731;-74
2021/09/28 01:16:54;;;;;;;24.25;12.95;;;;;;;11.06;87.84;101001.84;8501433;33;20436;-74
2021/09/28 01:21:59;;;;;;;30.95;14.82;;;;;;;11.02;87.77;101001.19;8500046;33;20429;-74
2021/09/28 01:27:02;;;;;;;26.13;14.13;;;;;;;11.02;87.79;101017.31;8487786;33;20191;-74
2021/09/28 01:32:06;;;;;;;26.08;14.60;;;;;;;11.00;87.79;101015.75;8520896;33;20589;-74
2021/09/28 01:37:11;;;;;;;25.08;14.90;;;;;;;10.94;88.00;101018.88;8541271;33;20434;-74
2021/09/28 01:42:14;;;;;;;25.63;14.38;;;;;;;10.95;88.04;101010.69;8539074;33;20144;-74
2021/09/28 01:47:17;;;;;;;23.92;14.20;;;;;;;10.98;87.74;101012.31;8538611;33;20188;-74
2021/09/28 01:52:21;;;;;;;27.45;15.55;;;;;;;10.94;87.58;101017.06;8538884;33;20939;-74
2021/09/28 01:57:24;;;;;;;33.70;14.77;;;;;;;10.92;87.60;101023.50;8540944;33;20470;-74
2021/09/28 02:02:27;;;;;;;25.30;14.07;;;;;;;10.91;87.85;101035.22;8539789;33;20496;-74
2021/09/28 02:07:32;;;;;;;30.08;15.48;;;;;;;10.82;87.40;101042.13;8542105;33;20144;-74
2021/09/28 02:12:35;;;;;;;30.00;14.95;;;;;;;10.83;87.57;101043.81;8557623;33;20545;-74
2021/09/28 02:17:40;;;;;;;30.75;16.15;;;;;;;10.90;87.50;101047.81;8558984;33;20486;-74
2021/09/28 02:22:44;;;;;;;35.28;16.55;;;;;;;10.91;87.47;101051.34;8560622;33;20152;-74
2021/09/28 02:27:48;;;;;;;31.55;16.90;;;;;;;10.88;87.50;101051.56;8559255;33;20133;-74
2021/09/28 02:32:51;;;;;;;29.30;17.35;;;;;;;10.90;87.23;101047.81;8554434;33;20219;-74
2021/09/28 02:37:56;;;;;;;27.48;14.75;;;;;;;10.96;87.73;101059.94;8544109;33;20213;-74
2021/09/28 02:43:00;;;;;;;35.85;17.80;;;;;;;11.01;87.79;101060.47;8544228;33;20282;-74
2021/09/28 02:48:04;;;;;;;32.72;17.73;;;;;;;11.03;88.02;101054.00;8543831;33;20502;-74
2021/09/28 02:53:09;;;;;;;37.05;17.65;;;;;;;11.13;88.14;101059.59;8543283;33;20422;-74
2021/09/28 02:58:12;;;;;;;40.80;20.50;;;;;;;11.10;87.83;101059.78;8544330;33;20755;-75
2021/09/28 03:03:15;;;;;;;45.70;22.17;;;;;;;11.08;87.83;101069.81;8549001;33;20475;-74
2021/09/28 03:08:19;;;;;;;45.70;22.98;;;;;;;11.08;87.96;101069.81;8555570;33;20468;-74
2021/09/28 03:13:22;;;;;;;45.55;22.73;;;;;;;11.08;87.57;101069.81;8558495;33;21223;-74
2021/09/28 03:18:25;;;;;;;45.38;24.48;;;;;;;11.08;87.83;101071.63;8562465;33;20988;-74
2021/09/28 03:23:30;;;;;;;47.92;24.33;;;;;;;11.05;87.41;101075.41;8564008;33;20409;-74
2021/09/28 03:28:33;;;;;;;51.08;26.63;;;;;;;10.99;87.50;101071.31;8563957;33;20231;-74
2021/09/28 03:33:36;;;;;;;47.45;26.08;;;;;;;10.98;87.46;101075.00;8565496;33;20274;-74
2021/09/28 03:38:40;;;;;;;61.22;28.77;;;;;;;10.97;87.31;101072.41;8565583;33;20183;-74
2021/09/28 03:43:43;;;;;;;55.45;27.50;;;;;;;10.96;87.26;101076.06;8563342;33;20427;-74
2021/09/28 03:48:46;;;;;;;56.35;27.98;;;;;;;10.97;87.50;101085.84;8564254;33;20443;-74
2021/09/28 03:53:52;;;;;;;56.35;28.67;;;;;;;10.94;87.46;101091.44;8562474;33;20441;-74
2021/09/28 03:58:55;;;;;;;56.88;30.10;;;;;;;10.89;87.37;101096.28;8555842;33;21214;-74
2021/09/28 04:03:59;;;;;;;63.70;29.42;;;;;;;10.82;87.35;101094.03;8547177;33;20438;-74
2021/09/28 04:09:04;;;;;;;53.85;27.88;;;;;;;10.76;87.25;101102.53;8557001;33;20487;-74
2021/09/28 04:14:08;;;;;;;56.45;28.38;;;;;;;10.74;87.35;101104.47;8548486;33;20172;-74
2021/09/28 04:19:11;;;;;;;65.90;29.48;;;;;;;10.62;87.34;101116.09;8547916;33;20159;-74
2021/09/28 04:24:15;;;;;;;62.13;29.55;;;;;;;10.59;87.61;101117.16;8545314;33;20144;-74
2021/09/28 04:29:18;;;;;;;54.63;27.40;;;;;;;10.60;87.05;101109.97;8546960;33;20484;-74
2021/09/28 04:34:21;;;;;;;58.25;27.35;;;;;;;10.58;86.85;101119.94;8547884;33;20876;-74
2021/09/28 04:39:26;;;;;;;49.60;26.05;;;;;;;10.45;87.19;101127.13;8548532;33;20448;-74
2021/09/28 04:44:29;;;;;;;47.20;24.20;;;;;;;10.44;87.31;101134.31;8557870;33;20148;-74
2021/09/28 04:49:32;;;;;;;49.40;22.98;;;;;;;10.43;87.04;101138.00;8561152;33;20232;-74
2021/09/28 04:54:36;;;;;;;48.30;22.35;;;;;;;10.40;86.77;101148.94;8560084;33;21025;-74
2021/09/28 04:59:39;;;;;;;42.22;21.45;;;;;;;10.40;86.89;101151.63;8546369;33;20408;-74
2021/09/28 05:04:43;;;;;;;48.65;22.58;;;;;;;10.38;86.72;101156.25;8546756;33;20530;-74
2021/09/28 05:09:47;;;;;;;46.72;23.20;;;;;;;10.31;86.76;101153.13;8546915;33;20163;-74
2021/09/28 05:14:50;;;;;;;44.85;22.35;;;;;;;10.26;86.68;101157.09;8544198;33;20714;-74
2021/09/28 05:19:53;;;;;;;48.20;23.02;;;;;;;10.15;86.80;101163.19;8546747;33;20152;-74
2021/09/28 05:24:57;;;;;;;50.03;22.30;;;;;;;10.15;86.88;101160.50;8500831;33;20184;-74
2021/09/28 05:30:00;;;;;;;50.90;21.75;;;;;;;10.16;86.85;101179.16;8488113;33;20470;-74
2021/09/28 05:35:04;;;;;;;51.88;22.45;;;;;;;10.15;86.46;101181.97;8488275;33;20416;-74
2021/09/28 05:40:10;;;;;;;47.50;21.55;;;;;;;10.05;86.65;101188.91;8487543;33;21427;-74
2021/09/28 05:45:13;;;;;;;48.45;21.17;;;;;;;10.12;86.50;101198.25;8487456;33;20490;-74
2021/09/28 05:50:16;;;;;;;42.03;21.63;;;;;;;10.19;86.32;101202.25;8487684;33;20155;-74
2021/09/28 05:55:22;;;;;;;39.50;20.17;;;;;;;10.27;86.02;101205.31;8487365;33;20411;-74
2021/09/28 06:00:25;;;;;;;45.92;20.98;;;;;;;10.19;86.25;101207.63;8482377;33;20207;-74
2021/09/28 06:05:28;;;;;;;43.85;20.80;;;;;;;10.16;85.87;101208.69;8477044;33;20422;-74
2021/09/28 06:10:33;;;;;;;43.25;20.67;;;;;;;10.13;86.19;101213.41;8479101;33;21199;-74
2021/09/28 06:15:36;;;;;;;36.63;17.60;;;;;;;10.16;85.48;101210.53;8482025;33;20642;-74
2021/09/28 06:20:39;;;;;;;43.03;20.27;;;;;;;10.33;85.58;101223.69;8485053;33;20152;-73
2021/09/28 06:25:43;;;;;;;40.72;21.20;;;;;;;10.30;85.33;101229.25;8498085;33;20187;-75
2021/09/28 06:30:47;;;;;;;40.55;20.33;;;;;;;10.33;85.31;101226.38;8502430;33;21931;-74
2021/09/28 06:35:51;;;;;;;42.45;18.70;;;;;;;10.54;85.08;101229.44;8474375;33;20641;-74
2021/09/28 06:40:55;;;;;;;37.10;18.33;;;;;;;10.86;84.88;101230.91;8478958;33;20691;-74
2021/09/28 06:45:59;;;;;;;30.45;15.30;;;;;;;10.89;83.45;101233.38;8491526;33;20402;-74
2021/09/28 06:51:02;;;;;;;35.78;15.23;;;;;;;11.00;82.52;101236.19;8502730;33;20531;-74
2021/09/28 06:56:07;;;;;;;29.08;14.20;;;;;;;11.20;82.81;101233.00;8502907;33;20461;-74
2021/09/28 07:01:10;;;;;;;28.88;14.23;;;;;;;11.41;82.63;101237.81;8500941;33;20653;-75
2021/09/28 07:06:13;;;;;;;32.28;13.25;;;;;;;11.39;81.49;101231.72;8505207;33;20609;-75
2021/09/28 07:11:19;;;;;;;25.63;13.13;;;;;;;11.57;81.23;101235.75;8527578;33;20417;-75
2021/09/28 07:16:22;;;;;;;26.63;11.35;;;;;;;11.75;80.73;101241.66;8506289;33;21300;-75
2021/09/28 07:21:25;;;;;;;24.48;11.15;;;;;;;11.78;80.09;101249.50;8501335;33;20407;-75
2021/09/28 07:26:30;;;;;;;23.30;9.85;;;;;;;11.69;79.86;101253.72;8490575;33;20573;-75
2021/09/28 07:31:33;;;;;;;18.95;9.27;;;;;;;11.88;79.77;101247.00;8501717;33;20184;-75
2021/09/28 07:36:36;;;;;;;19.55;9.93;;;;;;;11.84;78.84;101250.88;8493059;33;20861;-75
2021/09/28 07:41:40;;;;;;;21.05;9.77;;;;;;;12.03;79.33;101245.88;8487053;33;20594;-75
2021/09/28 07:46:43;;;;;;;19.05;9.85;;;;;;;12.12;77.61;101261.38;8489554;33;20470;-75
2021/09/28 07:51:46;;;;;;;16.88;9.68;;;;;;;12.43;77.08;101242.94;8508728;33;20431;-74
2021/09/28 07:56:51;;;;;;;21.05;10.27;;;;;;;12.80;77.35;101240.97;8485881;33;20430;-75
2021/09/28 08:01:54;;;;;;;19.35;10.48;;;;;;;12.74;75.57;101240.59;8491981;33;20141;-75
2021/09/28 08:06:57;;;;;;;21.15;9.60;;;;;;;12.85;76.85;101255.97;8519287;33;20245;-74
2021/09/28 08:12:01;;;;;;;21.30;10.10;;;;;;;13.34;76.56;101253.00;8542921;33;20405;-76
2021/09/28 08:17:05;;;;;;;15.68;9.23;;;;;;;13.49;75.35;101242.84;8543911;33;20429;-75
2021/09/28 08:22:11;;;;;;;16.13;9.77;;;;;;;13.57;72.10;101234.97;8543813;33;21717;-75
2021/09/28 08:32:36;;;;;;;19.77;8.90;;;;;;;13.73;71.59;101247.25;8532281;33;20529;-75
2021/09/28 08:37:40;;;;;;;16.50;9.30;;;;;;;13.70;73.07;101246.53;8526577;33;20510;-75
2021/09/28 08:42:45;;;;;;;20.88;10.30;;;;;;;13.78;71.77;101253.16;8532161;33;20412;-76
2021/09/28 08:47:48;;;;;;;20.42;10.07;;;;;;;14.40;71.87;101244.47;8532486;33;20247;-75
2021/09/28 08:52:53;;;;;;;16.90;9.13;;;;;;;14.84;70.63;101245.25;8527879;33;20152;-76
2021/09/28 09:03:27;;;;;;;13.68;8.43;;;;;;;15.24;69.32;101248.03;8751740;32;20597;-73
2021/09/28 09:08:34;;;;;;;12.95;8.88;;;;;;;15.31;66.06;101239.41;8682675;33;20458;-73
2021/09/28 09:13:41;;;;;;;13.88;8.82;;;;;;;14.84;67.14;101239.84;8681739;33;20313;-74
2021/09/28 09:18:49;;;;;;;13.27;9.00;;;;;;;15.08;67.99;101238.69;8682642;33;20211;-74
2021/09/28 09:23:53;;;;;;;15.98;9.80;;;;;;;15.12;66.20;101238.28;8682083;33;20224;-74
2021/09/28 09:28:58;;;;;;;18.48;9.30;;;;;;;15.11;66.13;101231.19;8681739;33;20310;-74
2021/09/28 09:34:14;;;;;;;13.18;9.00;;;;;;;15.37;64.63;101228.91;8682229;33;20233;-74
2021/09/28 09:39:17;;;;;;;13.07;9.15;;;;;;;16.00;65.77;101234.13;8682218;33;20634;-74
2021/09/28 09:44:20;;;;;;;14.90;9.00;;;;;;;16.69;63.85;101229.66;8682244;33;20220;-74
2021/09/28 09:49:27;;;;;;;18.40;10.45;;;;;;;16.30;62.61;101229.66;8681772;33;20633;-74
2021/09/28 09:54:33;;;;;;;12.40;8.98;;;;;;;16.58;61.26;101215.22;8681402;33;20180;-74
2021/09/28 09:59:38;;;;;;;17.20;9.07;;;;;;;17.22;60.66;101226.41;8681703;33;20602;-74
2021/09/28 10:04:42;;;;;;;14.38;10.07;;;;;;;17.11;58.14;101223.84;8681522;33;20672;-74
2021/09/28 10:09:48;;;;;;;12.80;9.85;;;;;;;16.35;60.99;101227.38;8682081;33;20315;-74
2021/09/28 10:15:06;;;;;;;12.70;9.63;;;;;;;17.26;58.92;101225.13;8666523;33;20227;-74
2021/09/28 10:20:26;;;;;;;18.65;10.82;;;;;;;18.72;55.06;101222.38;8663701;33;20200;-74
2021/09/28 10:25:42;;;;;;;15.68;10.35;;;;;;;18.41;55.27;101221.09;8662893;33;20192;-74
2021/09/28 10:30:47;;;;;;;15.75;9.65;;;;;;;18.23;55.56;101221.09;8662864;33;20312;-73
2021/09/28 10:35:57;;;;;;;19.85;10.00;;;;;;;17.39;58.15;101222.09;8661004;33;20616;-74
2021/09/28 10:41:01;;;;;;;16.15;9.70;;;;;;;17.36;58.09;101219.66;8661947;33;20184;-74
2021/09/28 10:46:07;;;;;;;18.30;9.35;;;;;;;18.37;55.56;101217.81;8660890;33;20634;-73
2021/09/28 10:51:14;;;;;;;14.75;8.60;;;;;;;18.24;54.93;101204.63;8661268;33;20184;-73
2021/09/28 10:56:19;;;;;;;11.02;7.53;;;;;;;17.31;57.48;101206.56;8659331;33;20233;-73
2021/09/28 11:01:25;;;;;;;11.55;7.18;;;;;;;16.95;57.63;101206.34;8660099;33;20141;-73
2021/09/28 11:07:07;;;;;;;10.48;6.93;;;;;;;16.95;58.05;101208.16;8660397;33;20169;-74
2021/09/28 11:12:10;;;;;;;9.77;6.65;;;;;;;16.78;58.40;101205.22;8657611;33;20457;-73
2021/09/28 11:17:18;;;;;;;11.60;7.13;;;;;;;16.48;59.89;101198.13;8660324;33;20279;-73
2021/09/28 11:22:23;;;;;;;11.75;5.85;;;;;;;16.47;57.47;101199.09;8659920;33;21149;-73
2021/09/28 11:27:26;;;;;;;12.55;5.68;;;;;;;16.28;58.90;101196.38;8659734;33;20180;-73
2021/09/28 11:32:29;;;;;;;8.65;4.68;;;;;;;16.61;57.44;101186.09;8659972;33;21613;-73
2021/09/28 11:37:34;;;;;;;10.85;5.57;;;;;;;18.00;54.66;101174.47;8659921;33;20244;-74
2021/09/28 11:42:37;;;;;;;11.75;5.55;;;;;;;18.28;53.14;101181.53;8661267;33;20180;-75
2021/09/28 11:47:41;;;;;;;8.93;5.15;;;;;;;19.93;49.78;101165.19;8659804;33;20183;-74
2021/09/28 11:52:46;;;;;;;9.02;4.15;;;;;;;19.27;48.51;101166.81;8660352;33;20145;-73
2021/09/28 11:57:50;;;;;;;9.00;3.83;;;;;;;18.84;49.06;101165.88;8659103;33;20188;-73
2021/09/28 12:03:05;;;;;;;8.00;4.13;;;;;;;18.21;50.33;101166.00;8659253;33;20160;-73
2021/09/28 12:08:21;;;;;;;9.23;4.45;;;;;;;19.43;48.16;101153.25;8659678;33;20176;-74
2021/09/28 12:13:28;;;;;;;8.32;4.30;;;;;;;20.27;46.36;101142.44;8659282;33;20230;-74
2021/09/28 12:18:32;;;;;;;8.45;3.92;;;;;;;20.63;44.86;101139.38;8660081;33;20215;-74
2021/09/28 12:23:37;;;;;;;7.05;4.43;;;;;;;20.21;45.89;101143.09;8659780;33;20136;-74
2021/09/28 12:28:41;;;;;;;8.32;4.53;;;;;;;19.29;47.83;101145.72;8659057;33;20735;-73
2021/09/28 12:33:44;;;;;;;7.78;4.43;;;;;;;19.46;48.20;101143.91;8658417;33;20220;-74
2021/09/28 12:38:49;;;;;;;7.88;4.40;;;;;;;19.32;49.02;101134.50;8659193;33;20772;-74
2021/09/28 12:43:52;;;;;;;9.90;4.38;;;;;;;19.19;49.00;101134.06;8680004;33;20188;-73
2021/09/28 12:48:56;;;;;;;9.27;4.32;;;;;;;18.38;50.22;101143.41;8680844;33;20184;-73
2021/09/28 12:54:00;;;;;;;8.80;4.30;;;;;;;18.04;51.36;101121.50;8658589;33;20859;-73
2021/09/28 12:59:03;;;;;;;7.88;4.38;;;;;;;18.54;51.00;101126.31;8658352;33;20184;-74
2021/09/28 13:04:06;;;;;;;11.50;4.50;;;;;;;18.47;49.64;101117.94;8658406;33;20273;-74
2021/09/28 13:09:10;;;;;;;11.50;5.00;;;;;;;19.51;49.00;101105.28;8658584;33;20275;-73
2021/09/28 13:14:14;;;;;;;6.68;4.22;;;;;;;19.32;46.94;101092.78;8657628;33;20180;-73
2021/09/28 13:19:17;;;;;;;6.07;4.38;;;;;;;19.60;46.31;101099.69;8657986;33;20188;-74
2021/09/28 13:24:21;;;;;;;6.60;4.43;;;;;;;18.77;49.38;101096.75;8656385;33;20599;-73
2021/09/28 13:29:24;;;;;;;10.93;4.43;;;;;;;18.12;50.39;101105.25;8658531;33;20210;-74
2021/09/28 13:34:28;;;;;;;7.15;4.15;;;;;;;17.74;50.60;101093.63;8658079;33;20279;-73
2021/09/28 13:39:32;;;;;;;8.13;4.47;;;;;;;18.10;50.15;101091.84;8657777;33;20186;-74
2021/09/28 13:44:36;;;;;;;7.28;3.90;;;;;;;20.77;44.60;101079.44;8657377;33;20160;-74
2021/09/28 13:49:39;;;;;;;8.07;4.78;;;;;;;21.86;42.67;101082.41;8662309;33;20206;-74
2021/09/28 13:54:47;;;;;;;9.52;3.80;;;;;;;21.94;41.39;101076.00;8662056;33;20211;-74
2021/09/28 13:59:51;;;;;;;4.13;3.83;;;;;;;21.49;42.31;101067.56;8662330;33;20500;-74
2021/09/28 14:04:54;;;;;;;4.38;3.70;;;;;;;20.31;45.00;101061.97;8662225;33;20615;-74
2021/09/28 14:09:59;;;;;;;5.38;4.03;;;;;;;19.34;46.84;101055.34;8662440;33;20194;-74
2021/09/28 14:15:02;;;;;;;9.18;4.43;;;;;;;18.97;47.39;101053.81;8662225;33;20665;-74
2021/09/28 14:20:07;;;;;;;8.57;4.10;;;;;;;18.98;46.88;101045.50;8662496;33;20268;-74
2021/09/28 14:25:12;;;;;;;8.20;4.65;;;;;;;20.70;44.97;101036.66;8661675;33;20373;-74
2021/09/28 14:30:16;;;;;;;5.47;3.97;;;;;;;20.27;43.09;101030.59;8661508;33;20212;-74
2021/09/28 14:35:19;;;;;;;8.15;4.25;;;;;;;19.85;45.00;101032.44;8661542;33;20667;-74
2021/09/28 14:40:41;;;;;;;7.40;4.00;;;;;;;21.65;42.60;101025.63;8661528;33;21377;-74
2021/09/28 14:45:44;;;;;;;7.28;4.43;;;;;;;20.84;41.58;101014.06;8661216;33;20276;-74
2021/09/28 14:50:48;;;;;;;6.40;3.47;;;;;;;19.93;43.29;101012.50;8661217;33;20184;-74
2021/09/28 14:55:53;;;;;;;7.35;4.20;;;;;;;19.41;44.86;101007.31;8660905;33;20237;-74
2021/09/28 15:00:56;;;;;;;4.07;3.58;;;;;;;19.31;44.66;101002.03;8660360;33;20200;-74
2021/09/28 15:06:00;;;;;;;6.97;3.80;;;;;;;19.14;45.83;100997.56;8659929;33;20207;-74
2021/09/28 15:11:05;;;;;;;7.90;3.65;;;;;;;18.49;46.96;101004.41;8657397;33;20183;-73
2021/09/28 15:16:08;;;;;;;3.85;3.45;;;;;;;18.48;47.47;101005.41;8660611;33;20334;-74
2021/09/28 15:21:11;;;;;;;5.10;3.20;;;;;;;18.72;47.27;101004.69;8660333;33;20329;-74
2021/09/28 15:26:16;;;;;;;5.93;3.35;;;;;;;19.11;46.31;101001.47;8658460;33;20228;-74
2021/09/28 15:31:25;;;;;;;8.85;3.38;;;;;;;19.41;45.36;101002.72;8659851;33;20192;-73
2021/09/28 15:36:29;;;;;;;6.47;2.95;;;;;;;19.41;44.54;100991.84;8659647;33;20645;-74
2021/09/28 15:41:35;;;;;;;7.28;3.83;;;;;;;19.08;45.75;101000.94;8659411;33;20198;-73
2021/09/28 15:46:38;;;;;;;5.60;2.53;;;;;;;18.86;45.64;100997.81;8659248;33;20306;-73
2021/09/28 15:51:43;;;;;;;8.20;2.47;;;;;;;18.64;46.28;101001.91;8659428;33;20188;-73
2021/09/28 15:56:48;;;;;;;3.50;2.40;;;;;;;18.47;47.16;100998.25;8658715;33;20180;-74
2021/09/28 16:01:51;;;;;;;5.25;1.70;;;;;;;18.40;46.31;100993.63;8680978;33;20189;-74
2021/09/28 16:06:55;;;;;;;8.57;2.08;;;;;;;18.21;46.73;100998.28;8659226;33;20184;-74
2021/09/28 16:11:59;;;;;;;4.63;1.83;;;;;;;17.87;47.68;100999.00;8657298;33;20343;-74
2021/09/28 16:17:03;;;;;;;4.65;1.92;;;;;;;17.47;48.27;100986.78;8658585;33;21503;-74
2021/09/28 16:22:06;;;;;;;8.73;2.20;;;;;;;17.30;50.13;100984.03;8659638;33;20192;-74
2021/09/28 16:27:10;;;;;;;5.18;2.05;;;;;;;17.58;49.68;100974.81;8658785;33;20192;-74
2021/09/28 16:32:13;;;;;;;4.68;2.15;;;;;;;17.60;49.59;100978.22;8659004;33;20233;-75
2021/09/28 16:37:16;;;;;;;4.72;2.00;;;;;;;17.02;50.76;100984.03;8658844;33;20149;-75
2021/09/28 16:42:21;;;;;;;3.75;2.35;;;;;;;16.65;51.91;100982.25;8659014;33;20165;-76
2021/09/28 16:47:24;;;;;;;4.55;2.42;;;;;;;16.50;53.87;100973.72;8657837;33;20193;-76
2021/09/28 16:52:27;;;;;;;6.13;2.55;;;;;;;16.23;57.33;100976.34;8657919;33;20188;-76
2021/09/28 16:57:33;;;;;;;4.68;2.10;;;;;;;15.87;59.81;100978.84;8658279;33;20133;-76
2021/09/28 17:02:37;;;;;;;4.35;2.10;;;;;;;15.49;61.39;100977.88;8658067;33;20237;-75
2021/09/28 17:07:40;;;;;;;6.68;2.35;;;;;;;15.17;62.09;100978.97;8656513;33;20604;-73
2021/09/28 17:12:45;;;;;;;6.75;2.42;;;;;;;14.93;62.53;100976.63;8680603;33;20172;-75
2021/09/28 17:17:48;;;;;;;3.03;1.90;;;;;;;14.57;62.21;100981.63;8657625;33;20184;-75
2021/09/28 17:22:52;;;;;;;7.00;2.13;;;;;;;14.45;62.96;100971.88;8659810;33;20188;-75
2021/09/28 17:27:57;;;;;;;7.72;2.65;;;;;;;14.40;62.40;100973.28;8662054;33;20177;-76
2021/09/28 17:33:04;;;;;;;3.92;1.80;;;;;;;14.38;62.06;100979.69;8661914;33;20560;-75
2021/09/28 17:38:08;;;;;;;3.55;2.15;;;;;;;14.25;62.33;100972.75;8662575;33;20195;-75
2021/09/28 17:43:12;;;;;;;4.70;2.38;;;;;;;14.11;63.79;100980.22;8661982;33;21057;-75
2021/09/28 17:48:15;;;;;;;8.95;2.50;;;;;;;14.10;63.11;100972.25;8661934;33;20184;-75
2021/09/28 17:53:24;;;;;;;3.80;1.73;;;;;;;14.04;62.43;100979.06;8662283;33;20177;-76
2021/09/28 17:58:28;;;;;;;4.97;2.40;;;;;;;14.02;62.90;100980.19;8661845;33;20242;-76
2021/09/28 18:03:31;;;;;;;9.05;2.85;;;;;;;13.97;63.73;100972.47;8669446;33;20519;-76
2021/09/28 18:08:34;;;;;;;7.68;2.72;;;;;;;13.94;64.21;100970.03;8780078;33;20446;-77
2021/09/28 18:13:39;;;;;;;5.15;2.78;;;;;;;13.94;63.63;100961.94;8778486;33;20545;-76
2021/09/28 18:18:41;;;;;;;10.20;3.05;;;;;;;13.92;64.07;100964.75;8753506;33;20323;-76
2021/09/28 18:23:45;;;;;;;6.93;3.05;;;;;;;13.87;64.19;100966.97;8778758;33;20187;-76
2021/09/28 18:28:50;;;;;;;6.30;2.90;;;;;;;13.86;64.74;100967.97;8753699;33;20794;-78
2021/09/28 18:33:53;;;;;;;7.05;3.08;;;;;;;13.78;65.81;100956.97;8779836;33;20229;-77
2021/09/28 18:38:56;;;;;;;6.82;3.10;;;;;;;13.63;66.19;100960.97;8778321;33;20243;-75
2021/09/28 18:44:04;;;;;;;4.35;3.13;;;;;;;13.51;66.73;100959.31;8777020;33;20827;-76
2021/09/28 18:49:09;;;;;;;7.78;3.40;;;;;;;13.35;67.14;100952.47;8720225;33;20652;-76
2021/09/28 18:54:15;;;;;;;3.95;3.50;;;;;;;13.31;67.35;100953.72;8724526;33;20512;-76
2021/09/28 18:59:23;;;;;;;6.80;3.00;;;;;;;13.27;67.50;100944.16;8726023;33;20197;-76
2021/09/28 19:04:33;;;;;;;6.65;3.28;;;;;;;13.27;67.28;100953.16;8722136;33;20719;-76
2021/09/28 19:09:36;;;;;;;8.15;4.40;;;;;;;13.16;67.46;100938.81;8717797;33;20681;-75
2021/09/28 19:14:41;;;;;;;8.27;4.05;;;;;;;13.10;67.62;100934.78;8717518;33;20262;-76
2021/09/28 19:19:44;;;;;;;11.52;4.13;;;;;;;12.99;68.15;100927.59;8717577;33;20183;-76
2021/09/28 19:24:48;;;;;;;7.70;4.00;;;;;;;12.96;68.42;100925.16;8717265;33;20192;-76
2021/09/28 19:29:54;;;;;;;11.20;4.60;;;;;;;12.99;68.28;100927.59;8717298;33;20199;-76
2021/09/28 19:34:57;;;;;;;14.27;7.30;;;;;;;12.94;67.97;100934.34;8716373;33;20664;-76
2021/09/28 19:40:05;;;;;;;12.98;6.00;;;;;;;12.92;68.25;100915.63;8692392;33;20245;-76
2021/09/28 19:45:13;;;;;;;10.43;6.28;;;;;;;12.90;68.52;100914.03;8716144;33;20229;-76
2021/09/28 19:50:18;;;;;;;7.78;5.40;;;;;;;12.83;69.10;100909.16;8692456;33;20190;-76
2021/09/28 19:55:30;;;;;;;9.80;6.38;;;;;;;12.80;69.47;100911.22;8716326;33;20229;-76
2021/09/28 20:06:04;;;;;;;16.58;7.18;;;;;;;12.68;70.51;100907.69;8716427;33;20152;-75
2021/09/28 20:37:55;;;;;;;9.48;6.97;;;;;;;12.28;72.52;100894.75;8657803;33;20327;-77
2021/09/28 20:42:58;;;;;;;10.48;6.80;;;;;;;12.24;72.42;100889.72;8657054;33;20456;-77
2021/09/28 20:48:04;;;;;;;10.35;7.63;;;;;;;12.17;72.92;100886.63;8657653;33;20568;-77
2021/09/28 20:53:07;;;;;;;11.38;8.30;;;;;;;12.01;73.82;100900.44;8632599;33;20623;-76
2021/09/28 20:58:10;;;;;;;11.75;7.57;;;;;;;12.01;73.56;100881.59;8657002;33;20176;-76
2021/09/28 21:03:15;;;;;;;9.60;8.55;;;;;;;11.91;73.63;100878.81;8633942;33;21607;-77
2021/09/28 21:08:19;;;;;;;11.63;8.13;;;;;;;11.86;73.98;100872.06;8657051;33;20176;-75
2021/09/28 21:13:23;;;;;;;9.88;8.27;;;;;;;11.77;74.28;100864.72;8632656;33;20630;-76
2021/09/28 21:18:27;;;;;;;13.07;8.70;;;;;;;11.70;74.55;100858.94;8656427;33;20634;-77
2021/09/28 21:23:31;;;;;;;14.40;8.60;;;;;;;11.61;74.72;100855.16;8656543;33;20537;-77
2021/09/28 21:28:34;;;;;;;15.75;8.95;;;;;;;11.54;74.67;100848.53;8632375;33;20195;-77
2021/09/28 21:33:45;;;;;;;11.13;8.57;;;;;;;11.52;75.12;100846.91;8657324;33;20877;-76
2021/09/28 21:38:48;;;;;;;11.80;8.45;;;;;;;11.46;75.42;100843.75;8715189;33;20237;-76
2021/09/28 21:43:51;;;;;;;12.85;8.95;;;;;;;11.44;75.29;100839.47;8715366;33;20195;-76
2021/09/28 21:48:55;;;;;;;13.85;9.00;;;;;;;11.41;75.50;100845.06;8748113;33;20209;-76
2021/09/28 21:53:58;;;;;;;15.50;8.55;;;;;;;11.41;75.19;100834.31;8743937;33;20211;-76
2021/09/28 21:59:01;;;;;;;11.82;7.85;;;;;;;11.37;75.27;100827.47;8756479;33;20143;-77
2021/09/28 22:04:06;;;;;;;11.93;8.52;;;;;;;11.39;75.17;100823.69;8776545;33;20245;-76
2021/09/28 22:09:09;;;;;;;11.40;7.90;;;;;;;11.40;74.74;100808.41;8776269;33;20229;-77
2021/09/28 22:14:12;;;;;;;12.70;8.33;;;;;;;11.38;74.76;100803.16;8777735;33;20437;-76
2021/09/28 22:19:16;;;;;;;10.65;8.18;;;;;;;11.35;74.81;100799.81;8777971;33;20577;-76
2021/09/28 22:24:19;;;;;;;11.05;7.57;;;;;;;11.38;74.62;100808.53;8777492;33;20151;-76
2021/09/28 22:29:22;;;;;;;9.30;7.32;;;;;;;11.36;74.67;100793.47;8777059;33;20939;-77
2021/09/28 22:34:26;;;;;;;9.25;7.15;;;;;;;11.39;74.50;100788.72;8777304;33;20416;-77
2021/09/28 22:39:30;;;;;;;12.07;7.50;;;;;;;11.41;74.46;100786.78;8752333;33;20597;-77
2021/09/28 22:44:33;;;;;;;13.40;7.70;;;;;;;11.36;74.67;100775.50;8777133;33;20205;-77
2021/09/28 22:49:37;;;;;;;11.63;7.75;;;;;;;11.32;74.68;100776.72;8777684;33;20201;-76
2021/09/28 22:54:40;;;;;;;11.85;7.72;;;;;;;11.28;74.88;100778.78;8777317;33;20179;-77
2021/09/28 22:59:45;;;;;;;11.73;8.13;;;;;;;11.17;75.13;100776.06;8776967;33;20193;-77
2021/09/28 23:04:49;;;;;;;12.40;7.60;;;;;;;11.12;75.25;100778.25;8776464;33;20147;-76
2021/09/28 23:09:52;;;;;;;16.10;8.10;;;;;;;11.06;75.46;100781.41;8777079;33;20187;-76
2021/09/28 23:14:55;;;;;;;9.55;7.20;;;;;;;11.03;75.63;100771.72;8775656;33;20178;-77
2021/09/28 23:19:59;;;;;;;11.48;7.53;;;;;;;11.01;75.62;100751.31;8739133;33;20190;-77
2021/09/28 23:25:03;;;;;;;11.82;7.82;;;;;;;11.01;75.50;100757.56;8776163;33;20150;-76
2021/09/28 23:30:07;;;;;;;10.40;7.82;;;;;;;11.02;75.45;100758.41;8776229;33;20193;-77
2021/09/28 23:35:12;;;;;;;12.45;7.38;;;;;;;10.99;75.52;100743.34;8775729;33;20147;-76
2021/09/28 23:40:15;;;;;;;10.95;7.72;;;;;;;11.06;75.24;100746.44;8751070;33;20276;-76
2021/09/28 23:45:18;;;;;;;10.18;6.88;;;;;;;11.02;75.04;100740.44;8775596;33;20185;-77
2021/09/28 23:50:22;;;;;;;10.45;7.78;;;;;;;11.02;75.20;100736.88;8776039;33;20166;-75
2021/09/28 23:55:25;;;;;;;10.43;6.65;;;;;;;11.01;74.91;100735.19;8775351;33;20408;-76
